Time;durP1;ratioP1;P1;durP2;ratioP2;P2;SDS_P1;SDS_P2;PMS_P1;PMS_P2;Temp;Humidity;BMP_temperature;BMP_pressure;BME280_temperature;BME280_humidity;BME280_pressure;Samples;Min_cycle;Max_cycle;Signal;HPM_P1;HPM_P2
2022/07/19 00:01:49;;;;;;;3.80;2.30;;;;;;;21.91;56.51;100123.38;5091789;28;20432;-58
2022/07/19 00:04:17;;;;;;;4.23;2.03;;;;;;;21.97;56.09;100124.13;5092336;28;20199;-58
2022/07/19 00:06:44;;;;;;;2.70;1.93;;;;;;;21.84;56.44;100130.41;5091975;28;20191;-59
2022/07/19 00:09:11;;;;;;;3.10;1.90;;;;;;;21.93;55.78;100125.06;5092249;28;20347;-59
2022/07/19 00:11:38;;;;;;;4.93;2.63;;;;;;;21.89;55.58;100115.56;5084007;28;20202;-58
2022/07/19 00:14:05;;;;;;;3.53;2.10;;;;;;;21.81;55.83;100133.09;5092153;28;20221;-58
2022/07/19 00:16:32;;;;;;;1.77;1.67;;;;;;;21.73;55.72;100130.63;5091826;28;20191;-59
2022/07/19 00:18:58;;;;;;;3.17;2.03;;;;;;;21.50;55.64;100090.13;5091651;28;20218;-59
2022/07/19 00:21:27;;;;;;;2.40;1.80;;;;;;;21.65;56.02;100131.66;5091728;28;21107;-59
2022/07/19 00:23:53;;;;;;;1.97;1.87;;;;;;;21.70;55.95;100129.81;5091550;28;20191;-59
2022/07/19 00:26:20;;;;;;;2.77;2.13;;;;;;;21.63;56.23;100130.84;5077680;28;20217;-58
2022/07/19 00:28:47;;;;;;;2.50;2.00;;;;;;;21.62;56.32;100118.63;5071584;28;20581;-59
2022/07/19 00:31:14;;;;;;;2.10;2.00;;;;;;;21.58;56.43;100122.22;5071208;28;20192;-58
2022/07/19 00:33:40;;;;;;;2.20;2.00;;;;;;;21.54;56.70;100123.16;5071456;28;20199;-58
2022/07/19 00:36:08;;;;;;;4.72;1.98;;;;;;;21.62;56.57;100119.50;5070362;28;21284;-58
2022/07/19 00:38:36;;;;;;;2.43;1.97;;;;;;;21.55;56.86;100123.13;5071131;28;20222;-58
2022/07/19 00:41:03;;;;;;;1.70;1.60;;;;;;;21.37;57.04;100117.38;5070868;28;20206;-58
2022/07/19 00:43:30;;;;;;;2.37;1.90;;;;;;;21.41;56.89;100125.13;5070880;28;20615;-58
2022/07/19 00:45:57;;;;;;;2.23;2.00;;;;;;;21.27;57.12;100124.50;5070852;28;20198;-58
2022/07/19 00:48:24;;;;;;;1.90;1.80;;;;;;;21.37;56.87;100117.38;5070958;28;20195;-58
2022/07/19 00:50:51;;;;;;;6.03;2.33;;;;;;;21.34;56.77;100117.44;5071009;28;20578;-58
2022/07/19 00:53:19;;;;;;;1.70;1.60;;;;;;;21.16;56.78;100105.53;5070925;28;20677;-58
2022/07/19 00:55:48;;;;;;;5.23;1.97;;;;;;;21.18;57.15;100120.28;5070611;28;20195;-58
2022/07/19 00:58:18;;;;;;;3.93;1.97;;;;;;;21.25;56.79;100114.97;5070519;28;20235;-58
2022/07/19 01:00:44;;;;;;;3.13;1.80;;;;;;;21.16;57.17;100115.97;5070672;28;20191;-58
2022/07/19 01:03:13;;;;;;;3.40;2.17;;;;;;;21.18;57.06;100112.44;5070622;28;20732;-58
2022/07/19 01:05:40;;;;;;;4.50;2.10;;;;;;;21.17;57.15;100112.50;5083276;28;20199;-58
2022/07/19 01:08:07;;;;;;;1.60;1.50;;;;;;;21.10;57.12;100116.94;5070419;28;20735;-58
2022/07/19 01:10:35;;;;;;;4.97;1.97;;;;;;;21.12;57.37;100114.31;5070371;28;20662;-58
2022/07/19 01:13:03;;;;;;;4.27;1.90;;;;;;;21.05;57.32;100107.41;5083597;28;20195;-58
2022/07/19 01:15:30;;;;;;;1.77;1.67;;;;;;;21.05;57.23;100113.53;5090404;28;20191;-58
2022/07/19 01:17:57;;;;;;;5.80;1.63;;;;;;;21.02;57.53;100103.13;5090421;28;20234;-58
2022/07/19 01:20:25;;;;;;;2.63;2.10;;;;;;;21.05;57.52;100102.19;5090119;28;20210;-58
2022/07/19 01:22:53;;;;;;;3.13;2.20;;;;;;;21.11;57.06;100102.13;5090173;28;20187;-58
2022/07/19 01:25:22;;;;;;;4.97;2.00;;;;;;;21.09;57.29;100101.31;5088421;28;20190;-58
2022/07/19 01:27:49;;;;;;;1.83;1.60;;;;;;;21.12;57.30;100109.09;5086779;28;20884;-58
2022/07/19 01:30:18;;;;;;;2.60;1.60;;;;;;;21.14;57.13;100105.56;5089548;28;20186;-58
2022/07/19 01:32:45;;;;;;;2.17;1.70;;;;;;;21.12;57.21;100098.66;5088145;28;20551;-58
2022/07/19 01:35:13;;;;;;;2.77;1.53;;;;;;;21.09;57.09;100104.78;5085310;28;20191;-68
2022/07/19 01:37:40;;;;;;;1.60;1.50;;;;;;;21.09;57.45;100107.41;5089960;28;20190;-68
2022/07/19 01:40:11;;;;;;;2.10;1.90;;;;;;;21.04;57.42;100103.09;5090080;28;20214;-68
2022/07/19 01:42:39;;;;;;;3.30;1.80;;;;;;;21.00;57.82;100096.19;5087558;28;21006;-68
2022/07/19 01:45:08;;;;;;;5.53;2.10;;;;;;;20.90;57.54;100082.44;5089810;28;20194;-68
2022/07/19 01:47:36;;;;;;;2.17;1.60;;;;;;;21.07;57.29;100096.09;5087469;28;20183;-58
2022/07/19 01:50:03;;;;;;;1.93;1.83;;;;;;;21.01;57.53;100103.16;5089574;28;20194;-58
2022/07/19 01:52:30;;;;;;;2.70;1.60;;;;;;;21.00;57.63;100098.81;5090095;28;20214;-59
2022/07/19 01:54:57;;;;;;;2.80;1.63;;;;;;;21.05;57.64;100102.19;5089905;28;20673;-58
2022/07/19 01:57:25;;;;;;;6.17;2.33;;;;;;;21.01;57.85;100105.75;5089651;28;20226;-58
2022/07/19 01:59:52;;;;;;;2.30;1.77;;;;;;;21.05;57.53;100110.91;5090160;28;20223;-59
2022/07/19 02:02:19;;;;;;;3.57;2.07;;;;;;;20.99;58.07;100113.63;5089770;28;20191;-58
2022/07/19 02:04:46;;;;;;;2.00;1.87;;;;;;;21.02;57.85;100108.34;5090077;28;20233;-58
2022/07/19 02:07:13;;;;;;;2.63;1.90;;;;;;;21.12;57.99;100119.56;5088038;28;20961;-58
2022/07/19 02:09:40;;;;;;;3.50;1.77;;;;;;;21.22;57.22;100117.63;5083496;28;20187;-58
2022/07/19 02:12:07;;;;;;;1.90;1.80;;;;;;;21.22;57.62;100121.13;5088108;28;20191;-58
2022/07/19 02:14:35;;;;;;;2.70;1.80;;;;;;;21.22;57.50;100125.47;5087277;28;20452;-58
2022/07/19 02:17:02;;;;;;;2.00;1.80;;;;;;;21.18;57.82;100122.03;5089218;28;20182;-59
2022/07/19 02:19:29;;;;;;;2.17;1.70;;;;;;;21.12;57.96;100119.56;5089719;28;20214;-58
2022/07/19 02:21:56;;;;;;;4.93;2.10;;;;;;;21.13;57.82;100121.25;5089919;28;20206;-58
2022/07/19 02:24:22;;;;;;;2.33;1.97;;;;;;;21.04;58.69;100117.00;5089761;28;20195;-58
2022/07/19 02:26:49;;;;;;;3.77;1.87;;;;;;;20.97;59.32;100115.41;5089267;28;20282;-58
2022/07/19 02:29:16;;;;;;;1.57;1.47;;;;;;;20.96;59.29;100123.25;5080151;28;20268;-58
2022/07/19 02:31:44;;;;;;;4.23;1.80;;;;;;;20.96;58.89;100124.09;5069876;28;20199;-58
2022/07/19 02:34:11;;;;;;;2.97;1.90;;;;;;;20.98;59.41;100118.88;5075716;28;20436;-58
2022/07/19 02:36:38;;;;;;;5.60;2.03;;;;;;;21.08;58.57;100126.56;5081250;28;20256;-58
2022/07/19 02:39:04;;;;;;;2.40;2.20;;;;;;;21.07;58.51;100116.13;5087910;28;20348;-58
2022/07/19 02:41:32;;;;;;;4.33;2.20;;;;;;;21.05;58.79;100120.50;5093402;28;20649;-58
2022/07/19 02:43:58;;;;;;;3.67;1.97;;;;;;;21.06;58.96;100123.09;5093566;28;20277;-58
2022/07/19 02:46:25;;;;;;;3.80;2.20;;;;;;;21.01;59.40;100119.66;5093461;28;20195;-58
2022/07/19 02:48:53;;;;;;;2.60;2.03;;;;;;;20.96;59.32;100118.00;5093281;28;20187;-58
2022/07/19 02:51:20;;;;;;;2.57;2.37;;;;;;;20.94;59.90;100120.66;5093237;28;20195;-58
2022/07/19 02:53:47;;;;;;;4.00;2.67;;;;;;;20.86;60.51;100113.81;5093240;28;20267;-58
2022/07/19 02:56:14;;;;;;;3.77;2.90;;;;;;;20.89;60.36;100125.09;5093208;28;20201;-58
2022/07/19 02:58:41;;;;;;;5.70;2.80;;;;;;;20.78;61.08;100124.41;5093311;28;20215;-59
2022/07/19 03:01:08;;;;;;;2.63;2.43;;;;;;;20.79;61.17;100126.13;5093394;28;20206;-58
2022/07/19 03:03:45;;;;;;;8.83;3.00;;;;;;;20.78;61.25;100128.75;5093297;28;20593;-58
2022/07/19 03:06:15;;;;;;;5.95;2.85;;;;;;;20.88;61.32;100114.66;5092131;28;20439;-58
2022/07/19 03:08:42;;;;;;;4.80;2.43;;;;;;;20.94;61.27;100115.44;5093516;28;20191;-58
2022/07/19 03:11:09;;;;;;;9.27;3.27;;;;;;;21.00;60.83;100122.31;5087943;28;20187;-58
2022/07/19 03:13:35;;;;;;;4.03;2.70;;;;;;;21.03;60.69;100124.88;5090295;28;20202;-58
2022/07/19 03:16:02;;;;;;;4.73;2.83;;;;;;;21.05;61.10;100123.09;5093123;28;20557;-58
2022/07/19 03:18:29;;;;;;;2.70;2.50;;;;;;;21.09;60.94;100122.22;5092754;28;20206;-58
2022/07/19 03:20:58;;;;;;;2.97;2.70;;;;;;;21.13;60.63;100126.47;5092978;28;20261;-58
2022/07/19 03:23:26;;;;;;;5.38;2.97;;;;;;;20.88;60.36;100084.19;5093166;28;20436;-58
2022/07/19 03:25:54;;;;;;;4.70;2.97;;;;;;;21.22;60.22;100142.03;5093081;28;20286;-59
2022/07/19 03:28:21;;;;;;;5.63;3.10;;;;;;;21.26;60.36;100135.84;5092790;28;20359;-58
2022/07/19 03:30:47;;;;;;;3.70;3.40;;;;;;;21.25;60.52;100134.13;5092653;28;20252;-58
2022/07/19 03:33:15;;;;;;;5.93;3.40;;;;;;;21.29;60.07;100140.19;5093105;28;20191;-58
2022/07/19 03:35:43;;;;;;;6.73;3.17;;;;;;;21.21;59.99;100128.97;5092440;28;20658;-58
2022/07/19 03:38:10;;;;;;;5.40;3.60;;;;;;;21.28;60.10;100144.53;5092629;28;20286;-58
2022/07/19 03:40:39;;;;;;;5.23;3.20;;;;;;;21.34;60.20;100136.59;5092628;28;20305;-59
2022/07/19 03:43:05;;;;;;;3.87;3.47;;;;;;;21.29;60.22;100109.66;5092360;28;20197;-59
2022/07/19 03:45:32;;;;;;;4.93;3.23;;;;;;;21.48;60.01;100136.38;5092242;28;20210;-58
2022/07/19 03:48:00;;;;;;;7.90;3.90;;;;;;;21.53;60.04;100131.91;5092260;28;20677;-58
2022/07/19 03:50:27;;;;;;;4.30;3.90;;;;;;;21.54;59.92;100136.22;5092536;28;20186;-58
2022/07/19 03:52:54;;;;;;;5.00;3.80;;;;;;;21.53;59.67;100126.69;5092422;28;20190;-58
2022/07/19 03:55:21;;;;;;;9.07;3.90;;;;;;;21.61;60.08;100137.84;5092351;28;20191;-58
2022/07/19 03:57:49;;;;;;;5.67;4.33;;;;;;;21.53;60.13;100137.13;5091798;28;20234;-58
2022/07/19 04:00:16;;;;;;;5.27;3.30;;;;;;;21.61;60.13;100140.47;5092029;28;20657;-58
2022/07/19 04:02:43;;;;;;;9.00;3.63;;;;;;;21.62;59.58;100143.06;5089837;28;20661;-58
2022/07/19 04:05:11;;;;;;;6.43;3.90;;;;;;;21.52;60.01;100141.50;5090965;28;20218;-58
2022/07/19 04:07:38;;;;;;;4.93;3.40;;;;;;;21.51;60.07;100145.00;5091647;28;20194;-58
2022/07/19 04:10:06;;;;;;;4.80;3.70;;;;;;;21.42;60.44;100150.41;5090687;28;20203;-59
2022/07/19 04:12:32;;;;;;;4.10;3.60;;;;;;;21.33;61.00;100153.16;5075038;28;20209;-58
2022/07/19 04:15:01;;;;;;;8.50;4.75;;;;;;;21.45;61.06;100150.31;5091258;28;20440;-58
2022/07/19 04:17:28;;;;;;;7.30;4.03;;;;;;;21.50;60.74;100145.91;5091899;28;20264;-58
2022/07/19 04:19:55;;;;;;;11.60;5.60;;;;;;;21.58;61.11;100145.75;5091290;28;20284;-58
2022/07/19 04:22:23;;;;;;;6.23;4.60;;;;;;;21.54;61.33;100142.31;5091130;28;20203;-57
2022/07/19 04:24:50;;;;;;;9.13;4.25;;;;;;;21.48;61.02;100144.22;5091449;28;20447;-58
2022/07/19 04:27:17;;;;;;;6.50;4.57;;;;;;;21.19;61.65;100100.25;5091541;28;20191;-57
2022/07/19 04:29:44;;;;;;;7.30;4.10;;;;;;;21.50;61.45;100148.50;5091417;28;20198;-58
2022/07/19 04:32:12;;;;;;;6.03;5.00;;;;;;;21.59;61.54;100148.34;5091487;28;20190;-58
2022/07/19 04:34:39;;;;;;;5.50;3.63;;;;;;;21.61;60.51;100153.56;5091630;28;20194;-58
2022/07/19 04:37:06;;;;;;;6.43;4.07;;;;;;;21.56;60.55;100145.75;5091305;28;20573;-58
2022/07/19 04:39:33;;;;;;;4.20;3.77;;;;;;;21.55;60.93;100151.03;5090939;28;20215;-58
2022/07/19 04:41:59;;;;;;;8.70;4.70;;;;;;;21.55;61.06;100149.28;5090764;28;20637;-58
2022/07/19 04:44:26;;;;;;;7.13;4.73;;;;;;;21.57;60.65;100152.75;5087795;28;20194;-58
2022/07/19 04:46:53;;;;;;;7.55;4.40;;;;;;;21.64;61.11;100151.75;5088376;28;20440;-58
2022/07/19 04:49:21;;;;;;;5.50;3.83;;;;;;;21.75;60.16;100159.41;5097842;28;20602;-58
2022/07/19 04:51:48;;;;;;;6.03;4.47;;;;;;;21.67;61.49;100153.44;5090177;28;20194;-58
2022/07/19 04:54:15;;;;;;;6.53;4.10;;;;;;;21.68;60.16;100157.78;5090332;28;20183;-58
2022/07/19 04:56:42;;;;;;;7.80;4.33;;;;;;;21.77;60.46;100161.09;5095113;28;20218;-58
2022/07/19 04:59:09;;;;;;;4.77;3.70;;;;;;;21.78;59.36;100154.94;5089621;28;20211;-58
2022/07/19 05:01:35;;;;;;;4.10;3.63;;;;;;;21.60;59.79;100155.31;5089761;28;20191;-58
2022/07/19 05:04:02;;;;;;;4.63;4.10;;;;;;;21.46;60.87;100162.53;5090320;28;20221;-58
2022/07/19 05:06:30;;;;;;;5.00;4.20;;;;;;;21.57;61.31;100157.97;5089268;28;20436;-58
2022/07/19 05:08:57;;;;;;;8.53;4.20;;;;;;;21.71;60.78;100157.72;5090274;28;20808;-58
2022/07/19 05:11:24;;;;;;;5.40;4.03;;;;;;;21.72;60.67;100160.31;5090323;28;20685;-58
2022/07/19 05:13:51;;;;;;;5.60;4.00;;;;;;;21.65;60.59;100161.31;5090533;28;20309;-58
2022/07/19 05:16:18;;;;;;;5.30;4.07;;;;;;;21.74;60.57;100162.91;5090378;28;20203;-58
2022/07/19 05:18:44;;;;;;;5.83;4.10;;;;;;;21.80;60.32;100156.69;5090600;28;20256;-58
2022/07/19 05:21:11;;;;;;;5.23;4.50;;;;;;;21.84;59.71;100161.81;5088433;28;20207;-58
2022/07/19 05:23:41;;;;;;;10.77;4.50;;;;;;;21.85;59.30;100160.94;5090186;28;20191;-58
2022/07/19 05:26:07;;;;;;;5.87;3.90;;;;;;;21.95;58.64;100157.28;5090508;28;20335;-58
2022/07/19 05:28:35;;;;;;;7.63;3.80;;;;;;;22.01;58.42;100151.06;5090312;28;20191;-58
2022/07/19 05:31:01;;;;;;;5.93;4.40;;;;;;;22.12;58.23;100159.56;5090218;28;20210;-58
2022/07/19 05:33:29;;;;;;;4.83;3.73;;;;;;;22.19;57.55;100159.44;5090205;28;20202;-58
2022/07/19 05:35:57;;;;;;;5.63;4.17;;;;;;;22.19;57.86;100156.81;5089964;28;20240;-58
2022/07/19 05:38:24;;;;;;;5.30;4.18;;;;;;;22.25;57.87;100155.81;5089717;28;20440;-58
2022/07/19 05:40:52;;;;;;;9.23;3.87;;;;;;;22.47;57.07;100164.94;5089828;28;20214;-58
2022/07/19 05:43:19;;;;;;;4.43;3.60;;;;;;;22.52;56.94;100152.63;5089693;28;20210;-59
2022/07/19 05:45:45;;;;;;;8.13;4.13;;;;;;;22.63;56.69;100150.66;5089573;28;20573;-59
2022/07/19 05:48:12;;;;;;;6.97;2.80;;;;;;;22.71;54.86;100160.97;5086405;28;20199;-59
2022/07/19 05:50:39;;;;;;;7.50;2.77;;;;;;;22.70;54.50;100160.09;5090057;28;20187;-58
2022/07/19 05:53:06;;;;;;;4.17;2.90;;;;;;;22.70;54.94;100156.63;5089829;28;20573;-58
2022/07/19 05:55:33;;;;;;;10.00;3.80;;;;;;;22.72;55.20;100154.81;5090024;28;20248;-58
2022/07/19 05:58:01;;;;;;;3.60;3.27;;;;;;;22.84;54.96;100163.28;5089655;28;20233;-58
2022/07/19 06:00:28;;;;;;;6.17;3.60;;;;;;;22.87;54.68;100173.69;5089541;28;20295;-58
2022/07/19 06:02:55;;;;;;;5.60;3.07;;;;;;;22.91;54.67;100170.09;5089588;28;20236;-59
2022/07/19 06:05:22;;;;;;;3.77;3.00;;;;;;;23.00;54.31;100166.41;5089901;28;20182;-58
2022/07/19 06:07:48;;;;;;;3.17;2.90;;;;;;;23.04;53.02;100169.81;5089849;28;20203;-58
2022/07/19 06:10:15;;;;;;;4.33;3.07;;;;;;;23.06;53.94;100155.78;5091987;28;20187;-59
2022/07/19 06:12:42;;;;;;;3.27;2.90;;;;;;;23.14;53.29;100155.56;5093919;28;20216;-59
2022/07/19 06:15:11;;;;;;;4.20;2.70;;;;;;;23.26;54.54;100157.91;5094187;28;20680;-58
2022/07/19 06:17:38;;;;;;;8.40;3.00;;;;;;;23.31;53.27;100156.03;5094021;28;20213;-58
2022/07/19 06:20:06;;;;;;;5.07;2.87;;;;;;;23.33;52.54;100162.09;5092996;28;20214;-58
2022/07/19 06:22:33;;;;;;;4.27;2.83;;;;;;;23.38;53.37;100160.25;5094010;28;20198;-58
2022/07/19 06:25:00;;;;;;;5.17;2.77;;;;;;;23.49;52.29;100163.47;5093750;28;20195;-58
2022/07/19 06:27:27;;;;;;;6.53;3.00;;;;;;;23.60;52.97;100161.41;5093644;28;20272;-57
2022/07/19 06:29:54;;;;;;;4.75;3.33;;;;;;;23.72;51.83;100161.09;5093058;28;20439;-58
2022/07/19 06:32:22;;;;;;;3.80;2.93;;;;;;;23.82;51.25;100156.47;5093288;28;20352;-57
2022/07/19 06:34:49;;;;;;;4.83;2.67;;;;;;;23.85;50.00;100157.25;5092920;28;20210;-58
2022/07/19 06:37:16;;;;;;;5.13;2.97;;;;;;;23.92;50.50;100164.06;5093587;28;20569;-58
2022/07/19 06:39:42;;;;;;;2.63;2.43;;;;;;;24.00;50.65;100163.84;5093119;28;20210;-57
2022/07/19 06:42:09;;;;;;;3.67;2.87;;;;;;;23.92;50.06;100158.81;5093048;28;20677;-58
2022/07/19 06:44:36;;;;;;;6.37;3.60;;;;;;;23.98;49.91;100163.88;5092156;28;20251;-58
2022/07/19 06:47:03;;;;;;;3.20;2.90;;;;;;;23.94;49.63;100149.13;5091630;28;20190;-58
2022/07/19 06:49:31;;;;;;;6.83;3.33;;;;;;;24.01;49.57;100162.94;5092068;28;20198;-58
2022/07/19 06:51:58;;;;;;;7.03;3.27;;;;;;;24.13;49.58;100149.50;5092694;28;20222;-59
2022/07/19 06:54:24;;;;;;;2.80;2.60;;;;;;;24.23;49.35;100153.56;5093093;28;20570;-59
2022/07/19 06:56:53;;;;;;;8.07;3.07;;;;;;;24.32;49.28;100150.69;5092620;28;20222;-60
2022/07/19 06:59:20;;;;;;;4.03;2.60;;;;;;;24.37;48.42;100146.16;5092547;28;20623;-59
2022/07/19 07:01:47;;;;;;;5.40;2.93;;;;;;;24.37;48.11;100140.03;5092770;28;20309;-59
2022/07/19 07:04:14;;;;;;;4.87;3.50;;;;;;;24.31;49.01;100141.06;5092710;28;20195;-59
2022/07/19 07:06:42;;;;;;;4.73;3.90;;;;;;;24.50;48.96;100144.03;5092998;28;20202;-58
2022/07/19 07:09:09;;;;;;;4.60;3.10;;;;;;;24.44;48.03;100115.31;5092741;28;20210;-62
2022/07/19 07:11:36;;;;;;;3.50;3.20;;;;;;;24.61;47.75;100134.06;5092813;28;20195;-69
2022/07/19 07:14:02;;;;;;;3.17;2.87;;;;;;;24.70;47.94;100140.78;5092579;28;20194;-67
2022/07/19 07:16:30;;;;;;;6.70;3.53;;;;;;;24.67;47.63;100104.13;5092610;28;20195;-67
2022/07/19 07:18:56;;;;;;;3.63;3.27;;;;;;;24.94;47.17;100130.38;5092525;28;20685;-66
2022/07/19 07:21:23;;;;;;;11.10;3.37;;;;;;;25.05;47.05;100137.97;5092005;28;20569;-67
2022/07/19 07:23:51;;;;;;;8.50;5.17;;;;;;;25.09;46.44;100135.16;5092304;28;20191;-69
2022/07/19 07:26:18;;;;;;;4.23;3.13;;;;;;;25.12;45.85;100137.69;5092938;28;20364;-68
2022/07/19 07:28:45;;;;;;;5.63;3.23;;;;;;;25.20;46.45;100146.19;5092758;28;20202;-67
2022/07/19 07:31:12;;;;;;;4.37;3.63;;;;;;;25.18;46.69;100134.00;5091978;28;20187;-67
2022/07/19 07:33:39;;;;;;;6.53;4.33;;;;;;;25.30;45.75;100132.75;5092032;28;20203;-67
2022/07/19 07:36:06;;;;;;;5.63;2.87;;;;;;;25.36;46.35;100114.97;5091946;28;20195;-57
2022/07/19 07:38:33;;;;;;;6.33;3.00;;;;;;;25.51;45.35;100126.78;5090418;28;20197;-58
2022/07/19 07:41:01;;;;;;;3.33;2.93;;;;;;;25.61;43.77;100120.28;5081340;28;20218;-58
2022/07/19 07:43:28;;;;;;;4.47;3.00;;;;;;;25.48;43.78;100119.84;5083679;28;20880;-58
2022/07/19 07:45:55;;;;;;;2.90;2.33;;;;;;;25.55;44.23;100120.47;5074917;28;20214;-58
2022/07/19 07:48:22;;;;;;;4.17;2.50;;;;;;;25.70;43.68;100122.59;5091723;28;20197;-58
2022/07/19 07:50:49;;;;;;;3.83;2.90;;;;;;;25.84;43.49;100117.69;5091868;28;20191;-58
2022/07/19 07:53:16;;;;;;;4.97;3.07;;;;;;;25.99;42.36;100119.75;5073005;28;20200;-58
2022/07/19 07:55:43;;;;;;;4.73;3.17;;;;;;;25.89;41.58;100121.03;5071591;28;20208;-57
2022/07/19 07:58:13;;;;;;;5.57;2.97;;;;;;;26.01;41.69;100120.59;5071368;28;20969;-58
2022/07/19 08:00:41;;;;;;;3.03;2.40;;;;;;;25.95;40.90;100112.91;5073878;28;20219;-58
2022/07/19 08:03:08;;;;;;;3.70;2.53;;;;;;;25.95;40.61;100110.28;5071516;28;20219;-58
2022/07/19 08:05:35;;;;;;;5.23;2.87;;;;;;;25.78;39.41;100113.50;5076643;28;20206;-58
2022/07/19 08:08:02;;;;;;;3.43;3.10;;;;;;;25.95;37.95;100115.53;5091481;28;20226;-58
2022/07/19 08:10:32;;;;;;;3.40;2.50;;;;;;;26.07;37.52;100116.88;5090279;28;20815;-58
2022/07/19 08:12:59;;;;;;;4.03;2.17;;;;;;;26.04;36.08;100120.44;5091132;28;20202;-58
2022/07/19 08:15:27;;;;;;;3.23;2.00;;;;;;;25.93;35.15;100112.06;5090331;28;20673;-59
2022/07/19 08:17:54;;;;;;;3.50;2.13;;;;;;;25.83;32.55;100110.69;5070801;28;20628;-58
2022/07/19 08:20:20;;;;;;;2.87;2.40;;;;;;;26.14;33.56;100106.06;5071104;28;20224;-58
2022/07/19 08:22:48;;;;;;;5.20;2.50;;;;;;;26.37;34.80;100106.03;5079546;28;20304;-58
2022/07/19 08:25:16;;;;;;;2.37;1.70;;;;;;;26.63;30.07;100104.16;5091465;28;20199;-57
2022/07/19 08:27:44;;;;;;;3.10;2.00;;;;;;;26.73;29.20;100101.09;5090933;28;20195;-58
2022/07/19 08:30:12;;;;;;;2.67;2.30;;;;;;;26.90;29.78;100100.47;5090777;28;20187;-59
2022/07/19 08:32:41;;;;;;;3.95;2.60;;;;;;;27.12;29.80;100096.00;5088889;28;20435;-58
2022/07/19 08:35:09;;;;;;;2.40;2.20;;;;;;;27.32;30.42;100089.91;5087118;28;20210;-58
2022/07/19 08:37:36;;;;;;;2.80;1.80;;;;;;;27.33;30.34;100096.91;5083221;28;20191;-67
2022/07/19 08:40:05;;;;;;;2.60;2.40;;;;;;;27.14;31.12;100088.88;5088218;28;20202;-67
2022/07/19 08:42:32;;;;;;;3.13;2.78;;;;;;;27.30;30.97;100081.19;5089940;28;20207;-68
2022/07/19 08:45:03;;;;;;;2.92;2.42;;;;;;;27.35;31.17;100084.50;5087792;28;20187;-67
2022/07/19 08:47:31;;;;;;;3.25;2.22;;;;;;;27.56;31.15;100088.00;5090402;28;20634;-67
2022/07/19 08:50:00;;;;;;;3.90;2.20;;;;;;;27.70;30.54;100083.84;5087954;28;20256;-65
2022/07/19 08:52:27;;;;;;;2.88;1.75;;;;;;;27.68;29.45;100076.91;5089701;28;20190;-66
2022/07/19 08:54:55;;;;;;;6.45;3.00;;;;;;;27.79;29.53;100079.94;5090081;28;20179;-66
2022/07/19 09:00:08;;;;;;;1.90;1.80;;;;;;;27.55;29.45;100073.97;5088345;28;20621;-65
2022/07/19 09:02:34;;;;;;;3.30;2.83;;;;;;;27.64;29.58;100072.69;5090625;28;20306;-65
2022/07/19 09:05:07;;;;;;;3.78;2.50;;;;;;;27.65;29.21;100072.63;5090295;28;20256;-65
2022/07/19 09:07:35;;;;;;;5.47;3.50;;;;;;;27.69;30.12;100066.28;5090089;28;20637;-66
2022/07/19 09:10:17;;;;;;;4.05;2.20;;;;;;;27.97;30.45;100076.44;5089172;28;20477;-66
2022/07/19 09:13:00;;;;;;;4.77;1.80;;;;;;;28.05;30.07;100055.84;5090188;28;20204;-67
2022/07/19 09:15:38;;;;;;;4.93;3.17;;;;;;;28.30;29.00;100066.13;5089937;28;20592;-58
2022/07/19 09:18:10;;;;;;;3.20;2.90;;;;;;;28.37;29.34;100063.16;5089715;28;20195;-57
2022/07/19 09:20:38;;;;;;;4.75;3.30;;;;;;;28.53;29.01;100056.19;5089730;28;20211;-58
2022/07/19 09:23:05;;;;;;;3.13;2.72;;;;;;;28.61;28.61;100054.03;5090095;28;20214;-57
2022/07/19 09:25:36;;;;;;;3.42;2.10;;;;;;;28.68;28.87;100055.47;5089587;28;20538;-58
2022/07/19 09:28:03;;;;;;;2.50;2.30;;;;;;;28.70;28.49;100051.91;5089885;28;20194;-58
2022/07/19 09:30:36;;;;;;;4.93;2.88;;;;;;;28.73;29.37;100054.41;5090005;28;20191;-58
2022/07/19 09:33:12;;;;;;;2.55;1.85;;;;;;;28.77;28.24;100051.53;5089684;28;20509;-58
2022/07/19 09:35:42;;;;;;;4.30;3.03;;;;;;;28.80;28.71;100046.09;5089931;28;20191;-58
2022/07/19 09:38:21;;;;;;;3.22;2.17;;;;;;;28.87;28.02;100041.34;5089883;28;20225;-58
2022/07/19 09:40:48;;;;;;;2.90;1.90;;;;;;;28.72;28.57;100052.69;5089814;28;20225;-57
2022/07/19 09:43:15;;;;;;;2.97;2.20;;;;;;;28.65;29.03;100038.91;5089525;28;20194;-57
2022/07/19 09:45:42;;;;;;;2.47;1.90;;;;;;;28.67;29.06;100048.50;5089054;28;20446;-58
2022/07/19 09:48:09;;;;;;;2.75;2.10;;;;;;;28.67;28.86;100042.34;5089935;28;20213;-58
2022/07/19 09:50:36;;;;;;;6.53;2.47;;;;;;;28.65;29.21;100045.03;5089890;28;20183;-57
2022/07/19 09:53:06;;;;;;;7.22;2.97;;;;;;;28.80;29.33;100039.94;5089861;28;20191;-58
2022/07/19 09:55:33;;;;;;;2.30;2.10;;;;;;;29.02;29.30;100041.44;5089881;28;20484;-58
2022/07/19 09:58:03;;;;;;;5.95;2.40;;;;;;;29.15;29.33;100020.47;5089467;28;20726;-57
2022/07/19 10:00:30;;;;;;;3.55;3.25;;;;;;;29.28;29.18;100048.09;5089606;28;20194;-57
2022/07/19 10:02:59;;;;;;;3.50;2.50;;;;;;;29.13;29.11;100043.53;5089578;28;20194;-58
2022/07/19 10:05:27;;;;;;;4.95;2.25;;;;;;;29.08;29.11;100040.28;5084637;28;20673;-66
2022/07/19 10:07:56;;;;;;;5.37;2.07;;;;;;;28.98;28.47;100037.22;5088458;28;20432;-66
2022/07/19 10:10:30;;;;;;;3.65;2.00;;;;;;;28.93;28.83;100030.44;5089459;28;20195;-67
2022/07/19 10:12:58;;;;;;;3.22;2.40;;;;;;;28.80;28.98;100039.94;5089752;28;20199;-68
2022/07/19 10:15:26;;;;;;;2.40;2.20;;;;;;;28.71;30.24;100028.00;5089515;28;20191;-67
2022/07/19 10:18:04;;;;;;;5.25;2.38;;;;;;;29.02;29.34;100029.97;5083369;28;20191;-68
2022/07/19 10:20:32;;;;;;;2.45;1.73;;;;;;;29.07;27.90;100015.59;5071702;28;20318;-68
2022/07/19 10:23:00;;;;;;;8.25;2.10;;;;;;;29.15;28.37;100025.78;5069239;28;20183;-68
2022/07/19 10:25:41;;;;;;;2.60;1.80;;;;;;;29.09;28.02;100020.81;5069096;28;20192;-68
2022/07/19 10:28:31;;;;;;;3.35;1.60;;;;;;;29.23;28.63;100016.53;5068997;28;20662;-68
2022/07/19 10:30:58;;;;;;;6.93;2.22;;;;;;;29.28;28.14;100008.38;5069110;28;20505;-67
2022/07/19 10:33:31;;;;;;;3.45;2.13;;;;;;;29.42;28.18;100002.34;5069458;28;20198;-68
2022/07/19 10:35:58;;;;;;;3.55;2.30;;;;;;;29.58;28.50;100004.09;5070816;28;20724;-68
2022/07/19 10:38:25;;;;;;;2.20;2.00;;;;;;;29.57;28.28;99990.94;5068781;28;20909;-67
2022/07/19 10:40:58;;;;;;;3.78;2.42;;;;;;;29.52;28.37;99992.97;5068886;28;20779;-67
2022/07/19 10:43:27;;;;;;;3.63;3.30;;;;;;;29.49;27.64;99993.13;5069148;28;20187;-68
2022/07/19 10:46:12;;;;;;;4.60;2.58;;;;;;;29.71;27.65;99997.22;5068666;28;20195;-68
2022/07/19 10:48:41;;;;;;;4.20;2.25;;;;;;;29.74;27.39;99997.03;5068053;28;20188;-67
2022/07/19 10:51:08;;;;;;;3.63;2.15;;;;;;;29.77;27.96;99999.53;5068152;28;20265;-66
2022/07/19 10:54:05;;;;;;;2.10;1.90;;;;;;;29.80;27.83;99986.13;5068522;28;20192;-67
2022/07/19 10:56:39;;;;;;;3.15;1.85;;;;;;;29.70;27.65;99984.03;5070470;28;20202;-68
2022/07/19 10:59:08;;;;;;;2.58;1.92;;;;;;;29.76;27.05;99987.22;5071447;28;20441;-68
2022/07/19 11:01:37;;;;;;;2.67;1.90;;;;;;;29.72;27.45;99979.53;5072139;28;20276;-68
2022/07/19 11:04:23;;;;;;;3.45;1.92;;;;;;;29.59;27.36;99981.09;5072387;28;20187;-68
2022/07/19 11:06:51;;;;;;;3.63;2.67;;;;;;;29.39;27.80;99974.25;5072400;28;20196;-67
2022/07/19 11:09:17;;;;;;;2.22;1.98;;;;;;;29.42;28.29;99978.53;5072731;28;20196;-68
2022/07/19 11:11:46;;;;;;;2.78;2.20;;;;;;;29.23;27.10;99973.31;5072240;28;20242;-68
2022/07/19 11:14:13;;;;;;;6.30;1.90;;;;;;;29.02;27.75;99972.63;5072724;28;20199;-68
2022/07/19 11:16:41;;;;;;;3.78;2.20;;;;;;;28.93;28.22;99956.34;5072384;28;20196;-68
2022/07/19 11:19:09;;;;;;;6.07;2.30;;;;;;;28.94;28.65;99907.78;5071950;28;20196;-68
2022/07/19 11:21:37;;;;;;;3.78;3.40;;;;;;;29.49;29.09;99962.22;5071890;28;20211;-68
2022/07/19 11:24:04;;;;;;;4.30;2.63;;;;;;;29.83;28.77;99956.81;5072197;28;20609;-68
2022/07/19 11:26:37;;;;;;;3.72;2.60;;;;;;;30.06;28.34;99957.31;5071839;28;20195;-68
2022/07/19 11:29:06;;;;;;;5.95;2.00;;;;;;;30.25;27.71;99960.66;5072336;28;20187;-68
2022/07/19 11:31:33;;;;;;;3.67;2.20;;;;;;;30.43;26.97;99956.97;5071399;28;20935;-68
2022/07/19 11:34:01;;;;;;;3.00;2.80;;;;;;;30.62;26.62;99952.31;5071751;28;20206;-67